Williston, North Dakota
Current Conditions -  °F | °C
As of 4:14 PM on Thursday 27 Nov 2014 (Local Time) from KISN Reporting Station
Unknown Precip Unknown Precip  
Wind Chill: 10°   Ceiling: 1500
Heat Index: 20°   Visibility: 10mi
Dew Point: 15°   Wind: 8mph
Humidity: 81%   Direction: 130°SE
Pressure: 29.85"   Gusts: NA
Location:  48.15°N, 103.62°W
Report Text: KISN 272214Z AUTO 13007KT 10SM UP OVC015 M07/M09 A2985 RMK AO2 UPB14 P0000 T10671094
Loading
Personal Weather Stations






























Interactive Weather Map New forecast layout! Learn more

10-Day Weather Forecast

Advertisements
Track Severe Weather on mobile